Time;durP1;ratioP1;P1;durP2;ratioP2;P2;SDS_P1;SDS_P2;PMS_P1;PMS_P2;Temp;Humidity;BMP_temperature;BMP_pressure;BME280_temperature;BME280_humidity;BME280_pressure;Samples;Min_cycle;Max_cycle;Signal;HPM_P1;HPM_P2
2021/07/11 00:00:36;;;;;;;5.60;2.50;;;;;;;16.82;77.25;101205.03;5084908;28;20027;-77
2021/07/11 00:03:01;;;;;;;6.07;2.60;;;;;;;16.81;76.80;101200.66;5091779;28;20027;-77
2021/07/11 00:05:27;;;;;;;7.13;2.50;;;;;;;16.82;76.61;101199.53;5089013;28;20077;-77
2021/07/11 00:07:53;;;;;;;6.65;2.60;;;;;;;16.82;76.57;101206.97;5084514;28;20032;-79
2021/07/11 00:10:18;;;;;;;8.10;2.50;;;;;;;16.83;76.53;101206.69;5067717;28;20020;-77
2021/07/11 00:12:44;;;;;;;7.50;3.22;;;;;;;16.83;76.69;101201.19;5092090;28;20128;-77
2021/07/11 00:15:11;;;;;;;7.65;2.70;;;;;;;16.85;76.59;101203.59;5086593;28;20059;-77
2021/07/11 00:17:36;;;;;;;8.02;2.88;;;;;;;16.86;75.92;101205.25;5084395;28;20111;-77
2021/07/11 00:20:06;;;;;;;8.18;2.75;;;;;;;16.88;76.13;101214.00;5087236;28;20111;-77
2021/07/11 00:22:31;;;;;;;6.57;3.05;;;;;;;16.90;76.37;101221.97;5092764;28;20012;-77
2021/07/11 00:24:57;;;;;;;6.45;3.10;;;;;;;16.91;76.46;101218.09;5088245;28;20093;-78
2021/07/11 00:27:22;;;;;;;12.10;3.08;;;;;;;16.90;76.38;101213.72;5084869;28;20016;-78
2021/07/11 00:29:47;;;;;;;7.13;2.85;;;;;;;16.91;76.68;101212.56;5082848;28;20030;-78
2021/07/11 00:32:13;;;;;;;6.30;3.00;;;;;;;16.89;76.52;101209.31;5091401;28;20093;-77
2021/07/11 00:34:38;;;;;;;7.47;3.72;;;;;;;16.91;76.73;101205.13;5090340;28;20020;-77
2021/07/11 00:37:04;;;;;;;7.03;3.35;;;;;;;16.92;76.73;101209.53;5081923;28;20032;-77
2021/07/11 00:39:29;;;;;;;9.00;3.25;;;;;;;16.95;76.75;101210.88;5085342;28;20040;-77
2021/07/11 00:41:55;;;;;;;8.13;3.10;;;;;;;16.92;76.39;101208.72;5095159;28;20030;-78
2021/07/11 00:44:20;;;;;;;6.43;2.80;;;;;;;16.92;76.31;101214.22;5093211;28;20055;-77
2021/07/11 00:46:46;;;;;;;8.10;3.75;;;;;;;16.92;75.92;101211.47;5092657;28;20024;-78
2021/07/11 00:49:11;;;;;;;4.50;2.63;;;;;;;16.92;75.92;101214.22;5076473;28;20024;-78
2021/07/11 00:51:36;;;;;;;9.35;2.80;;;;;;;16.90;75.76;101210.97;5076526;28;20029;-78
2021/07/11 00:54:02;;;;;;;7.18;2.65;;;;;;;16.90;75.84;101213.72;5090645;28;20040;-78
2021/07/11 00:56:27;;;;;;;9.32;3.28;;;;;;;16.89;75.83;101220.31;5080415;28;20043;-79
2021/07/11 00:58:53;;;;;;;7.40;3.45;;;;;;;16.86;75.73;101221.78;5087664;28;20031;-78
2021/07/11 01:01:44;;;;;;;7.72;3.50;;;;;;;16.85;75.84;101225.63;5094762;28;20031;-78
2021/07/11 01:04:17;;;;;;;7.00;2.85;;;;;;;16.84;75.56;101213.81;5077854;28;20024;-77
2021/07/11 01:06:42;;;;;;;5.95;2.35;;;;;;;16.83;75.04;101223.22;5092047;28;20023;-78
2021/07/11 01:09:12;;;;;;;7.60;3.15;;;;;;;16.82;75.18;101218.81;5073344;28;20119;-77
2021/07/11 01:11:43;;;;;;;5.47;3.00;;;;;;;16.83;75.22;101214.09;5076611;28;20035;-77
2021/07/11 01:14:08;;;;;;;11.50;2.97;;;;;;;16.83;75.32;101233.38;5065680;28;20376;-77
2021/07/11 01:16:34;;;;;;;7.65;2.90;;;;;;;16.82;75.25;101235.31;5089360;28;20036;-77
2021/07/11 01:19:04;;;;;;;6.38;3.00;;;;;;;16.81;75.41;101222.69;5072174;28;20029;-78
2021/07/11 01:21:29;;;;;;;10.00;3.45;;;;;;;16.78;75.51;101226.06;5095777;28;20034;-78
2021/07/11 01:24:02;;;;;;;6.47;2.55;;;;;;;16.78;75.37;101231.56;5091628;28;20031;-78
2021/07/11 01:26:28;;;;;;;8.32;3.75;;;;;;;16.77;75.32;101229.09;5084034;28;20029;-78
2021/07/11 01:28:53;;;;;;;5.28;2.38;;;;;;;16.75;74.99;101237.66;5084816;28;20036;-78
2021/07/11 01:31:19;;;;;;;6.30;2.70;;;;;;;16.74;74.76;101241.50;5067780;28;20024;-78
2021/07/11 01:33:45;;;;;;;7.00;2.70;;;;;;;16.72;75.07;101238.22;5093650;28;20035;-78
2021/07/11 01:36:11;;;;;;;5.85;2.45;;;;;;;16.71;74.46;101241.31;5072845;28;20032;-78
2021/07/11 01:38:37;;;;;;;8.88;3.05;;;;;;;16.71;74.65;101233.84;5076218;28;20044;-78
2021/07/11 01:41:03;;;;;;;6.57;2.95;;;;;;;16.73;74.85;101245.38;5072072;28;20073;-77
2021/07/11 01:43:29;;;;;;;4.43;2.25;;;;;;;16.72;74.72;101249.25;5091791;28;20093;-78
2021/07/11 01:45:54;;;;;;;8.48;3.30;;;;;;;16.72;75.03;101240.97;5069437;28;20031;-78
2021/07/11 01:48:20;;;;;;;6.93;2.78;;;;;;;16.74;74.99;101248.94;5084019;28;20026;-78
2021/07/11 01:50:52;;;;;;;6.65;2.80;;;;;;;16.72;73.81;101240.97;5081116;28;20028;-78
2021/07/11 01:53:31;;;;;;;4.32;2.60;;;;;;;16.72;73.98;101249.25;5093163;28;20034;-78
2021/07/11 01:55:56;;;;;;;8.15;3.55;;;;;;;16.71;74.08;101247.63;5085007;28;20074;-78
2021/07/11 01:58:22;;;;;;;10.80;3.13;;;;;;;16.73;74.04;101250.91;5072125;28;20016;-77
2021/07/11 02:00:49;;;;;;;7.10;2.75;;;;;;;16.73;74.07;101250.09;5086182;28;20012;-78
2021/07/11 02:03:18;;;;;;;7.50;3.13;;;;;;;16.71;74.24;101253.13;5082170;28;20081;-78
2021/07/11 02:05:45;;;;;;;6.40;2.83;;;;;;;16.71;74.14;101253.13;5104139;28;20424;-77
2021/07/11 02:08:12;;;;;;;6.80;3.05;;;;;;;16.69;73.88;101255.38;5091622;28;20059;-79
2021/07/11 02:10:37;;;;;;;5.22;2.00;;;;;;;16.70;74.12;101278.22;5092392;28;20053;-78
2021/07/11 02:13:06;;;;;;;13.55;2.58;;;;;;;16.70;74.52;101251.50;5093831;28;20298;-78
2021/07/11 02:15:32;;;;;;;8.20;2.80;;;;;;;16.70;74.79;101273.53;5087838;28;20013;-77
2021/07/11 02:17:57;;;;;;;8.35;2.97;;;;;;;16.70;74.91;101265.28;5073429;28;20093;-78
2021/07/11 02:20:23;;;;;;;7.07;3.28;;;;;;;16.68;75.08;101263.94;5087827;28;20028;-78
2021/07/11 02:22:49;;;;;;;6.63;2.58;;;;;;;16.68;75.22;101286.78;5092101;28;20024;-77
2021/07/11 02:25:17;;;;;;;6.65;3.20;;;;;;;16.67;75.14;101276.06;5087018;28;20024;-78
2021/07/11 02:27:46;;;;;;;4.13;3.03;;;;;;;16.66;74.87;101286.25;5072952;28;20054;-77
2021/07/11 02:30:16;;;;;;;6.13;2.70;;;;;;;16.66;75.20;101283.50;5072393;28;20031;-77
2021/07/11 02:32:45;;;;;;;6.95;2.95;;;;;;;16.65;74.84;101276.38;5092135;28;20389;-77
2021/07/11 02:35:13;;;;;;;7.72;4.47;;;;;;;16.65;75.00;101285.44;5074590;28;20043;-77
2021/07/11 02:37:42;;;;;;;8.18;2.63;;;;;;;16.65;75.08;101281.88;5087499;28;20027;-78
2021/07/11 02:40:08;;;;;;;8.57;2.67;;;;;;;16.65;75.59;101287.38;5086343;28;20104;-78
2021/07/11 02:42:33;;;;;;;9.32;2.60;;;;;;;16.67;75.65;101290.66;5068662;28;20103;-78
2021/07/11 02:44:59;;;;;;;10.93;3.22;;;;;;;16.70;76.05;101284.53;5091576;28;20024;-78
2021/07/11 02:47:29;;;;;;;5.93;2.72;;;;;;;16.69;75.89;101293.09;5088349;28;20028;-77
2021/07/11 02:49:56;;;;;;;8.98;3.28;;;;;;;16.70;76.02;101289.25;5074338;28;20020;-77
2021/07/11 02:52:22;;;;;;;9.68;2.75;;;;;;;16.69;76.40;101293.09;5087879;28;20116;-77
2021/07/11 02:55:00;;;;;;;5.47;3.08;;;;;;;16.72;76.46;101298.81;5073978;28;20024;-77
2021/07/11 02:57:28;;;;;;;8.40;3.67;;;;;;;16.72;76.23;101293.31;5074676;28;20035;-77
2021/07/11 02:59:53;;;;;;;7.22;3.17;;;;;;;16.70;76.58;101292.81;5074958;28;20030;-77
2021/07/11 03:02:19;;;;;;;10.15;3.90;;;;;;;16.71;76.24;101299.94;5045906;28;20021;-77
2021/07/11 03:04:44;;;;;;;9.23;3.10;;;;;;;16.72;76.32;101303.50;5063526;28;20032;-77
2021/07/11 03:07:10;;;;;;;7.38;2.85;;;;;;;16.71;76.60;101308.19;5085502;28;20032;-77
2021/07/11 03:09:35;;;;;;;6.10;2.70;;;;;;;16.72;76.70;101304.31;5087100;28;20035;-77
2021/07/11 03:12:01;;;;;;;6.32;2.90;;;;;;;16.71;76.49;101301.88;5094252;28;20070;-77
2021/07/11 03:14:26;;;;;;;9.27;2.85;;;;;;;16.71;76.69;101310.94;5091433;28;20077;-77
2021/07/11 03:16:54;;;;;;;6.25;2.90;;;;;;;16.73;76.41;101299.66;5055146;28;20473;-77
2021/07/11 03:19:19;;;;;;;7.80;2.60;;;;;;;16.73;76.37;101305.16;5080827;28;20028;-77
2021/07/11 03:21:46;;;;;;;6.10;3.20;;;;;;;16.73;76.46;101294.94;5091350;28;20020;-78
2021/07/11 03:24:11;;;;;;;8.98;2.55;;;;;;;16.74;76.59;101309.53;5069076;28;20108;-78
2021/07/11 03:26:39;;;;;;;6.20;3.30;;;;;;;16.74;76.53;101307.59;5069033;28;20028;-78
2021/07/11 03:29:06;;;;;;;6.60;3.00;;;;;;;16.71;76.87;101302.69;5066721;28;20485;-78
2021/07/11 03:31:31;;;;;;;6.85;3.20;;;;;;;16.72;76.94;101309.00;5062488;28;20032;-78
2021/07/11 03:33:57;;;;;;;6.70;2.92;;;;;;;16.70;76.64;101303.81;5090558;28;20097;-78
2021/07/11 03:36:22;;;;;;;9.13;2.88;;;;;;;16.70;76.50;101309.31;5089012;28;20024;-78
2021/07/11 03:38:56;;;;;;;6.40;3.22;;;;;;;16.70;76.62;101314.84;5073563;28;20047;-78
2021/07/11 03:41:26;;;;;;;5.05;2.95;;;;;;;16.73;76.70;101319.72;5087781;28;20052;-78
2021/07/11 03:43:53;;;;;;;9.73;3.22;;;;;;;16.73;76.25;101328.00;5089820;28;20056;-78
2021/07/11 03:46:20;;;;;;;7.25;2.85;;;;;;;16.73;76.33;101322.50;5089015;28;20036;-78
2021/07/11 03:48:48;;;;;;;8.80;3.10;;;;;;;16.72;76.56;101323.59;5063052;28;20032;-78
2021/07/11 03:51:14;;;;;;;4.55;2.92;;;;;;;16.74;76.48;101334.31;5089602;28;20032;-78
2021/07/11 03:53:39;;;;;;;6.93;3.22;;;;;;;16.74;76.58;101326.88;5087949;28;20031;-78
2021/07/11 03:56:05;;;;;;;6.05;2.40;;;;;;;16.72;76.03;101331.03;5071502;28;20406;-77
2021/07/11 03:58:33;;;;;;;5.70;2.30;;;;;;;16.69;75.92;101326.13;5074642;28;20111;-78
2021/07/11 04:00:59;;;;;;;5.70;2.90;;;;;;;16.69;75.94;101332.44;5073695;28;20031;-78
2021/07/11 04:03:25;;;;;;;5.05;3.10;;;;;;;16.73;75.87;101339.00;5083915;28;20035;-78
2021/07/11 04:05:50;;;;;;;6.35;3.83;;;;;;;16.72;75.76;101337.34;5071860;28;20054;-78
2021/07/11 04:08:17;;;;;;;8.27;2.78;;;;;;;16.74;75.97;101340.63;5088677;28;20137;-78
2021/07/11 04:10:42;;;;;;;6.32;2.63;;;;;;;16.74;75.53;101350.84;5071784;28;20032;-78
2021/07/11 04:13:08;;;;;;;4.40;2.50;;;;;;;16.71;75.21;101344.00;5086893;28;20035;-78
2021/07/11 04:15:33;;;;;;;6.03;2.70;;;;;;;16.73;75.18;101343.69;5074799;28;20028;-78
2021/07/11 04:18:02;;;;;;;5.00;2.80;;;;;;;16.73;75.03;101347.28;5073493;28;20032;-77
2021/07/11 04:20:28;;;;;;;5.53;3.10;;;;;;;16.76;75.15;101354.91;5087178;28;20496;-79
2021/07/11 04:22:54;;;;;;;7.97;2.97;;;;;;;16.77;75.15;101356.56;5070148;28;20032;-78
2021/07/11 04:25:20;;;;;;;6.10;3.03;;;;;;;16.77;75.30;101372.28;5053946;28;20024;-78
2021/07/11 04:27:46;;;;;;;6.95;2.92;;;;;;;16.78;75.27;101365.69;5070779;28;20382;-78
2021/07/11 04:30:11;;;;;;;5.53;3.03;;;;;;;16.78;74.82;101369.25;5079835;28;20032;-77
2021/07/11 04:32:37;;;;;;;4.50;3.00;;;;;;;16.74;74.47;101368.16;5086505;28;20110;-77
2021/07/11 04:35:05;;;;;;;5.15;2.92;;;;;;;16.74;74.68;101368.16;5089872;28;20024;-77
2021/07/11 04:37:31;;;;;;;7.88;2.83;;;;;;;16.79;74.75;101370.06;5072193;28;20027;-77
2021/07/11 04:39:56;;;;;;;8.80;3.05;;;;;;;16.82;75.05;101374.97;5088586;28;20047;-77
2021/07/11 04:42:22;;;;;;;7.80;3.33;;;;;;;16.79;74.75;101379.13;5091685;28;20449;-77
2021/07/11 04:44:48;;;;;;;6.40;3.33;;;;;;;16.79;74.75;101376.38;5090673;28;20043;-77
2021/07/11 04:47:13;;;;;;;4.93;2.60;;;;;;;16.81;74.76;101389.84;5088121;28;20438;-77
2021/07/11 04:49:39;;;;;;;9.15;2.80;;;;;;;16.83;74.71;101385.69;5087076;28;20020;-78
2021/07/11 04:52:04;;;;;;;6.63;2.90;;;;;;;16.85;74.60;101391.69;5084164;28;20102;-77
2021/07/11 04:54:30;;;;;;;5.47;2.55;;;;;;;16.88;74.53;101381.19;5085156;28;20081;-77
2021/07/11 04:56:55;;;;;;;6.00;2.92;;;;;;;16.88;74.65;101378.44;5088576;28;20381;-77
2021/07/11 04:59:21;;;;;;;6.13;3.30;;;;;;;16.92;74.74;101380.28;5083522;28;20024;-78
2021/07/11 05:01:46;;;;;;;5.80;2.67;;;;;;;16.95;74.34;101387.13;5071604;28;20028;-77
2021/07/11 05:04:12;;;;;;;5.13;3.05;;;;;;;16.96;74.57;101391.50;5082343;28;20039;-78
2021/07/11 05:06:37;;;;;;;6.07;2.95;;;;;;;16.99;74.48;101396.41;5088867;28;20082;-77
2021/07/11 05:09:03;;;;;;;8.50;3.13;;;;;;;17.00;74.52;101396.13;5089122;28;20016;-78
2021/07/11 05:11:28;;;;;;;5.32;2.75;;;;;;;17.00;74.34;101398.06;5088454;28;21357;-78
2021/07/11 05:13:54;;;;;;;7.65;3.28;;;;;;;17.03;74.48;101402.97;5084461;28;20037;-78
2021/07/11 05:16:20;;;;;;;6.82;3.17;;;;;;;17.04;74.11;101410.09;5085131;28;20024;-78
2021/07/11 05:18:45;;;;;;;5.68;2.70;;;;;;;17.06;74.04;101410.63;5088627;28;20034;-78
2021/07/11 05:21:10;;;;;;;6.13;3.42;;;;;;;17.06;74.00;101410.63;5086977;28;20465;-79
2021/07/11 05:23:36;;;;;;;6.82;3.70;;;;;;;17.10;74.14;101408.88;5089332;28;20093;-78
2021/07/11 05:26:01;;;;;;;7.40;3.05;;;;;;;17.14;74.43;101407.19;5089633;28;20020;-78
2021/07/11 05:28:27;;;;;;;5.60;3.40;;;;;;;17.15;74.36;101410.75;5091665;28;20081;-78
2021/07/11 05:30:52;;;;;;;5.28;2.38;;;;;;;17.15;73.95;101411.56;5092049;28;21642;-77
2021/07/11 05:33:17;;;;;;;5.63;2.90;;;;;;;17.16;73.54;101417.88;5087821;28;20035;-78
2021/07/11 05:35:43;;;;;;;4.72;2.97;;;;;;;17.20;73.52;101416.97;5091893;28;20020;-77
2021/07/11 05:38:08;;;;;;;6.15;2.90;;;;;;;17.26;73.54;101429.53;5091675;28;20370;-80
2021/07/11 05:40:34;;;;;;;5.85;2.60;;;;;;;17.25;73.68;101430.69;5087561;28;20043;-77
2021/07/11 05:42:59;;;;;;;4.75;2.53;;;;;;;17.25;73.21;101433.44;5085856;28;20051;-78
2021/07/11 05:45:25;;;;;;;5.65;2.53;;;;;;;17.27;73.29;101433.13;5086013;28;20101;-77
2021/07/11 05:47:50;;;;;;;4.20;2.40;;;;;;;17.27;73.01;101431.19;5093129;28;20016;-77
2021/07/11 05:50:15;;;;;;;7.18;3.47;;;;;;;17.27;72.78;101436.72;5090256;28;20040;-77
2021/07/11 05:52:41;;;;;;;7.65;3.22;;;;;;;17.25;72.79;101441.69;5083441;28;20024;-77
2021/07/11 05:55:08;;;;;;;6.47;2.95;;;;;;;17.26;72.94;101437.00;5091636;28;20016;-77
2021/07/11 05:57:33;;;;;;;7.97;3.72;;;;;;;17.30;73.19;101444.38;5090472;28;20508;-77
2021/07/11 05:59:58;;;;;;;4.80;2.97;;;;;;;17.35;72.86;101450.88;5072488;28;20052;-77
2021/07/11 06:02:26;;;;;;;6.03;3.00;;;;;;;17.36;72.63;101452.53;5085151;28;20400;-77
2021/07/11 06:04:51;;;;;;;6.38;3.05;;;;;;;17.40;72.63;101462.63;5091536;28;20020;-78
2021/07/11 06:07:17;;;;;;;6.45;3.10;;;;;;;17.40;72.32;101468.16;5090377;28;20136;-77
2021/07/11 06:09:43;;;;;;;5.65;2.50;;;;;;;17.42;72.09;101465.09;5086688;28;20025;-78
2021/07/11 06:12:08;;;;;;;8.18;3.13;;;;;;;17.46;72.04;101471.63;5090373;28;20803;-77
2021/07/11 06:14:34;;;;;;;5.70;3.25;;;;;;;17.47;72.18;101474.09;5085152;28;20028;-77
2021/07/11 06:17:00;;;;;;;4.47;2.97;;;;;;;17.46;72.03;101478.00;5087389;28;20020;-77
2021/07/11 06:19:25;;;;;;;5.95;2.80;;;;;;;17.45;72.28;101470.00;5087509;28;20027;-77
2021/07/11 06:21:50;;;;;;;6.32;3.00;;;;;;;17.45;72.58;101472.75;5087716;28;20027;-78
2021/07/11 06:24:16;;;;;;;7.22;3.17;;;;;;;17.45;72.52;101475.53;5092562;28;20415;-77
2021/07/11 06:26:42;;;;;;;6.88;2.90;;;;;;;17.44;72.28;101473.91;5089848;28;20029;-78
2021/07/11 06:29:07;;;;;;;5.57;3.60;;;;;;;17.47;72.20;101479.63;5081924;28;20056;-77
2021/07/11 06:31:33;;;;;;;6.32;2.95;;;;;;;17.50;72.14;101490.03;5083731;28;20020;-77
2021/07/11 06:33:58;;;;;;;6.65;2.80;;;;;;;17.53;72.11;101491.38;5087708;28;20512;-80
2021/07/11 06:36:25;;;;;;;10.10;3.50;;;;;;;17.59;71.87;101489.34;5089983;28;20094;-77
2021/07/11 06:38:50;;;;;;;6.95;3.15;;;;;;;17.67;71.61;101494.94;5091538;28;20044;-77
2021/07/11 06:41:15;;;;;;;6.18;3.30;;;;;;;17.79;72.09;101501.94;5090126;28;20051;-77
2021/07/11 06:43:41;;;;;;;6.10;3.15;;;;;;;17.84;71.15;101504.59;5087073;28;20498;-77
2021/07/11 06:46:06;;;;;;;5.32;2.70;;;;;;;17.86;70.93;101505.13;5086760;28;20028;-77
2021/07/11 06:48:32;;;;;;;7.72;3.28;;;;;;;17.91;71.10;101507.78;5091374;28;20025;-77
2021/07/11 06:50:57;;;;;;;7.30;2.80;;;;;;;17.96;70.99;101507.69;5090403;28;20372;-77
2021/07/11 06:53:23;;;;;;;5.38;2.80;;;;;;;17.97;71.06;101503.78;5089390;28;20032;-76
2021/07/11 06:55:48;;;;;;;11.52;3.50;;;;;;;17.96;70.68;101515.97;5091334;28;20020;-80
2021/07/11 06:58:14;;;;;;;5.65;3.70;;;;;;;17.97;71.33;101517.59;5070659;28;20373;-81
2021/07/11 07:00:39;;;;;;;8.10;3.25;;;;;;;18.04;71.63;101529.06;5087414;28;20032;-80
2021/07/11 07:03:04;;;;;;;4.20;3.33;;;;;;;18.00;70.70;101530.78;5092723;28;20374;-80
2021/07/11 07:05:31;;;;;;;6.68;3.28;;;;;;;17.96;71.26;101521.47;5084816;28;20381;-81
2021/07/11 07:07:56;;;;;;;4.53;2.88;;;;;;;17.96;71.17;101518.72;5091695;28;20036;-81
2021/07/11 07:10:23;;;;;;;5.88;2.88;;;;;;;17.97;71.02;101529.44;5093531;28;20035;-81
2021/07/11 07:12:48;;;;;;;6.80;2.70;;;;;;;17.96;70.94;101519.53;5073133;28;20080;-81
2021/07/11 07:15:14;;;;;;;4.95;2.67;;;;;;;18.01;71.17;101521.38;5070812;28;20103;-81
2021/07/11 07:17:39;;;;;;;7.22;2.90;;;;;;;18.09;70.86;101522.63;5068347;28;20036;-81
2021/07/11 07:20:06;;;;;;;6.25;2.95;;;;;;;18.07;70.53;101531.19;5086141;28;20381;-80
2021/07/11 07:22:32;;;;;;;7.75;2.90;;;;;;;18.00;70.31;101533.53;5083907;28;20160;-79
2021/07/11 07:24:57;;;;;;;7.43;3.47;;;;;;;17.98;70.40;101533.03;5086863;28;20028;-81
2021/07/11 07:27:23;;;;;;;5.20;2.50;;;;;;;18.01;69.91;101537.94;5086853;28;20492;-80
2021/07/11 07:29:48;;;;;;;5.57;2.30;;;;;;;18.09;69.96;101533.66;5085740;28;20065;-80
2021/07/11 07:32:14;;;;;;;4.38;2.45;;;;;;;18.19;69.54;101525.97;5091593;28;20481;-80
2021/07/11 07:34:39;;;;;;;4.03;2.10;;;;;;;18.28;69.26;101523.31;5088319;28;20081;-80
2021/07/11 07:37:05;;;;;;;5.40;2.75;;;;;;;18.31;69.09;101528.22;5090424;28;20027;-81
2021/07/11 07:39:30;;;;;;;6.15;3.28;;;;;;;18.37;68.90;101528.94;5091446;28;20077;-80
2021/07/11 07:41:55;;;;;;;6.50;2.63;;;;;;;18.46;68.63;101529.84;5080651;28;20386;-81
2021/07/11 07:44:21;;;;;;;6.65;2.75;;;;;;;18.50;68.15;101539.16;5090935;28;20103;-80
2021/07/11 07:46:47;;;;;;;4.93;2.60;;;;;;;18.49;68.12;101534.75;5081689;28;20123;-80
2021/07/11 07:49:12;;;;;;;5.15;2.92;;;;;;;18.48;68.19;101541.41;5091086;28;20031;-81
2021/07/11 07:51:40;;;;;;;4.53;2.40;;;;;;;18.50;68.16;101543.88;5072985;28;20111;-80
2021/07/11 07:54:05;;;;;;;3.58;2.55;;;;;;;18.54;68.12;101548.44;5091664;28;20085;-79
2021/07/11 07:56:30;;;;;;;4.45;2.75;;;;;;;18.58;67.56;101557.75;5087481;28;20405;-80
2021/07/11 07:58:56;;;;;;;4.28;2.22;;;;;;;18.54;67.15;101551.19;5090715;28;20023;-80
2021/07/11 08:01:21;;;;;;;4.05;2.22;;;;;;;18.50;66.84;101555.72;5087073;28;20031;-81
2021/07/11 08:03:47;;;;;;;4.82;2.25;;;;;;;18.53;66.45;101559.81;5091060;28;20024;-80
2021/07/11 08:06:12;;;;;;;7.13;2.10;;;;;;;18.56;66.13;101560.00;5085199;28;20404;-81
2021/07/11 08:08:37;;;;;;;6.65;2.20;;;;;;;18.61;66.78;101557.13;5084330;28;20035;-81
2021/07/11 08:11:03;;;;;;;3.30;2.13;;;;;;;18.70;66.28;101561.94;5087560;28;20016;-81
2021/07/11 08:13:28;;;;;;;4.72;2.42;;;;;;;18.70;66.74;101575.72;5082339;28;20025;-80
2021/07/11 08:15:54;;;;;;;4.85;2.75;;;;;;;18.76;66.75;101569.00;5088458;28;20024;-82
2021/07/11 08:18:19;;;;;;;3.75;2.17;;;;;;;18.75;66.82;101572.91;5066325;28;20180;-82
2021/07/11 08:20:46;;;;;;;4.93;2.55;;;;;;;18.80;67.09;101583.84;5082808;28;20039;-82
2021/07/11 08:23:11;;;;;;;5.63;2.40;;;;;;;18.80;66.75;101592.13;5085938;28;20016;-82
2021/07/11 08:25:37;;;;;;;5.43;2.38;;;;;;;18.83;66.55;101586.78;5088794;28;20024;-82
2021/07/11 08:28:02;;;;;;;4.40;2.63;;;;;;;18.86;66.53;101590.88;5086280;28;20016;-81
2021/07/11 08:30:28;;;;;;;3.67;1.88;;;;;;;18.85;66.09;101589.22;5084653;28;20042;-81
2021/07/11 08:32:53;;;;;;;2.92;1.98;;;;;;;18.87;65.73;101600.78;5081957;28;20025;-81
2021/07/11 08:35:19;;;;;;;4.43;1.90;;;;;;;18.89;65.70;101598.53;5079989;28;20032;-82
2021/07/11 08:37:44;;;;;;;4.43;1.95;;;;;;;18.92;65.47;101595.16;5084087;28;20083;-82
2021/07/11 08:40:10;;;;;;;4.63;2.55;;;;;;;18.94;65.27;101592.91;5083138;28;20020;-81
2021/07/11 08:42:36;;;;;;;4.20;2.05;;;;;;;18.92;65.22;101600.69;5072162;28;20469;-76
2021/07/11 08:45:02;;;;;;;3.15;1.65;;;;;;;18.90;64.88;101602.94;5082631;28;20032;-77
2021/07/11 08:47:28;;;;;;;3.47;2.35;;;;;;;18.90;64.89;101613.97;5084227;28;20462;-78
2021/07/11 08:49:53;;;;;;;3.95;2.10;;;;;;;18.90;65.00;101616.75;5086585;28;20138;-77
2021/07/11 08:52:19;;;;;;;4.68;2.65;;;;;;;18.81;65.14;101622.19;5070804;28;20465;-82
2021/07/11 08:54:44;;;;;;;6.18;2.58;;;;;;;18.72;65.40;101617.69;5088078;28;20028;-82
2021/07/11 08:57:10;;;;;;;5.20;2.83;;;;;;;18.63;65.71;101615.66;5084727;28;20028;-83
2021/07/11 08:59:36;;;;;;;6.65;2.47;;;;;;;18.58;66.56;101612.19;5085882;28;20035;-84
2021/07/11 09:02:02;;;;;;;8.88;2.72;;;;;;;18.51;66.32;101617.28;5090982;28;20092;-83
2021/07/11 09:04:36;;;;;;;6.53;2.67;;;;;;;18.43;66.51;101610.53;5089973;28;20028;-83
2021/07/11 09:07:02;;;;;;;4.28;2.40;;;;;;;18.48;66.81;101624.22;5089905;28;20024;-84
2021/07/11 09:09:30;;;;;;;5.50;2.53;;;;;;;18.55;66.64;101623.81;5089426;28;20024;-83
2021/07/11 09:12:03;;;;;;;3.88;2.45;;;;;;;18.61;66.45;101634.47;5084697;28;20443;-83
2021/07/11 09:14:30;;;;;;;4.60;2.17;;;;;;;18.56;66.40;101628.22;5091104;28;20028;-83
2021/07/11 09:16:56;;;;;;;6.93;2.25;;;;;;;18.58;66.02;101639.78;5091934;28;20042;-83
2021/07/11 09:19:31;;;;;;;4.22;1.90;;;;;;;18.50;65.77;101644.09;5085399;28;20381;-83
2021/07/11 09:22:13;;;;;;;4.63;2.08;;;;;;;18.47;65.57;101632.81;5089860;28;20359;-83
2021/07/11 09:24:54;;;;;;;3.95;1.88;;;;;;;18.56;65.32;101631.81;5083360;28;20024;-81
2021/07/11 09:27:24;;;;;;;3.63;2.38;;;;;;;18.69;65.53;101634.84;5071144;28;20024;-82
2021/07/11 09:29:49;;;;;;;3.20;2.13;;;;;;;18.75;65.29;101639.19;5083793;28;20501;-86
2021/07/11 09:32:34;;;;;;;3.35;2.13;;;;;;;18.73;64.95;101644.16;5090417;28;20032;-88
2021/07/11 09:35:26;;;;;;;3.53;1.85;;;;;;;18.70;64.60;101642.84;5091305;28;20057;-87
2021/07/11 09:37:58;;;;;;;4.80;2.27;;;;;;;18.72;64.83;101639.78;5084679;28;20482;-85
2021/07/11 09:40:25;;;;;;;;;;;;;;;18.67;64.37;101648.19;5084525;28;20110;-86
2021/07/11 09:42:58;;;;;;;3.35;1.90;;;;;;;18.68;64.53;101647.03;5081603;28;19916;-83
2021/07/11 09:45:26;;;;;;;5.65;2.20;;;;;;;18.68;64.90;101655.31;5087753;28;22166;-84
2021/07/11 09:47:55;;;;;;;4.70;2.05;;;;;;;18.64;64.66;101655.94;5085483;28;20019;-83
2021/07/11 09:50:24;;;;;;;3.50;2.22;;;;;;;18.60;64.94;101660.44;5083965;28;20476;-82
2021/07/11 09:52:51;;;;;;;6.45;2.22;;;;;;;18.57;65.26;101655.53;5083656;28;20106;-83
2021/07/11 09:55:23;;;;;;;5.20;2.13;;;;;;;18.58;65.13;101659.13;5091836;28;20043;-82
2021/07/11 09:57:51;;;;;;;3.60;1.60;;;;;;;18.62;64.99;101665.66;5086734;28;20020;-84
2021/07/11 10:00:29;;;;;;;4.55;2.85;;;;;;;18.71;65.31;101661.03;5091060;28;20012;-83
2021/07/11 10:02:58;;;;;;;3.60;1.75;;;;;;;18.76;64.77;101662.91;5089617;28;20477;-84
2021/07/11 10:05:24;;;;;;;5.55;2.03;;;;;;;18.79;64.64;101659.53;5086989;28;20543;-83
2021/07/11 10:07:49;;;;;;;3.55;1.80;;;;;;;18.75;64.60;101666.81;5084901;28;20127;-83
2021/07/11 10:10:19;;;;;;;3.13;2.03;;;;;;;18.76;64.64;101660.97;5087666;28;20035;-84
2021/07/11 10:12:45;;;;;;;3.17;1.90;;;;;;;18.74;64.34;101670.66;5084480;28;20489;-83
2021/07/11 10:15:18;;;;;;;2.65;1.90;;;;;;;18.77;64.56;101667.31;5085270;28;20032;-83
2021/07/11 10:17:47;;;;;;;4.40;2.22;;;;;;;18.79;64.85;101673.34;5085962;28;20027;-83
2021/07/11 10:20:14;;;;;;;3.85;2.15;;;;;;;18.79;64.95;101665.06;5092072;28;20024;-84
2021/07/11 10:22:42;;;;;;;3.20;1.85;;;;;;;18.78;64.47;101666.19;5087025;28;20036;-83
2021/07/11 10:25:11;;;;;;;2.55;1.80;;;;;;;18.78;64.45;101666.19;5087383;28;20024;-83
2021/07/11 10:27:36;;;;;;;4.20;2.30;;;;;;;18.83;64.42;101668.88;5089856;28;20688;-82
2021/07/11 10:30:02;;;;;;;2.63;1.95;;;;;;;18.87;64.47;101664.34;5090851;28;20043;-84
2021/07/11 10:32:28;;;;;;;3.88;2.22;;;;;;;18.91;64.72;101670.91;5084277;28;20027;-85
2021/07/11 10:35:05;;;;;;;3.03;1.95;;;;;;;18.95;64.46;101665.56;5090119;28;20023;-83
2021/07/11 10:37:43;;;;;;;2.58;1.80;;;;;;;18.98;64.10;101665.75;5088406;28;20016;-83
2021/07/11 10:40:10;;;;;;;3.70;1.83;;;;;;;18.98;63.79;101670.47;5098504;28;20539;-83
2021/07/11 10:42:37;;;;;;;3.58;2.17;;;;;;;18.97;63.71;101669.66;5083011;28;20079;-85
2021/07/11 10:45:09;;;;;;;3.80;1.50;;;;;;;18.96;63.71;101681.84;5070552;28;20482;-83
2021/07/11 10:47:34;;;;;;;5.68;2.30;;;;;;;18.90;64.05;101673.97;5087423;28;20085;-84
2021/07/11 10:50:00;;;;;;;2.88;1.75;;;;;;;18.91;64.37;101676.44;5088200;28;20040;-83
2021/07/11 10:52:26;;;;;;;5.05;2.33;;;;;;;18.87;64.01;101680.91;5088777;28;20034;-84
2021/07/11 10:55:00;;;;;;;3.55;1.80;;;;;;;18.85;64.38;101685.94;5084665;28;20119;-83
2021/07/11 10:57:36;;;;;;;4.75;2.17;;;;;;;18.93;64.28;101685.22;5091204;28;20032;-83
2021/07/11 11:00:11;;;;;;;6.03;2.30;;;;;;;19.04;64.50;101697.72;5083690;28;20016;-83
2021/07/11 11:02:37;;;;;;;4.20;2.15;;;;;;;19.12;63.90;101681.50;5084435;28;20047;-83
2021/07/11 11:05:05;;;;;;;2.47;1.80;;;;;;;19.25;63.61;101686.19;5068421;28;20066;-82
2021/07/11 11:07:41;;;;;;;3.45;1.95;;;;;;;19.26;63.37;101693.34;5086264;28;20035;-83
2021/07/11 11:10:24;;;;;;;4.30;1.75;;;;;;;19.33;63.12;101695.72;5086763;28;20070;-85
2021/07/11 11:13:09;;;;;;;3.65;2.25;;;;;;;19.40;63.06;101699.69;5082210;28;20046;-85
2021/07/11 11:16:12;;;;;;;2.22;1.50;;;;;;;19.46;63.10;101708.69;5083897;28;20027;-85
2021/07/11 11:18:43;;;;;;;;;;;;;;;19.50;62.75;101702.19;5083868;28;20476;-85
2021/07/11 11:21:13;;;;;;;3.53;1.90;;;;;;;19.39;63.26;101709.09;5086621;28;19916;-84
2021/07/11 11:23:40;;;;;;;1.63;1.52;;;;;;;19.26;63.70;101709.94;5069039;28;20164;-87